Heath, Texas
Current Conditions -  °F | °C
As of 7:35 PM on Saturday 25 Oct 2014 (Local Time) from KF46 Reporting Station
Clear Clear  
Wind Chill: 78°   Ceiling: Unl
Heat Index: 80°   Visibility: 10mi
Dew Point: 62°   Wind: 5mph
Humidity: 56%   Direction: 160°SSE
Pressure: 30.05"   Gusts: NA
Location:  32.8584°N, 96.4261°W
Report Text: KF46 260035Z AUTO 16004KT 10SM CLR 26/17 A3005 RMK AO2 T02580165
Loading
Personal Weather Stations






























Interactive Weather Map
Tropical Storm Tracking
New forecast layout! Learn more

10-Day Weather Forecast

Advertisements
Track Severe Weather on mobile